Time;durP1;ratioP1;P1;durP2;ratioP2;P2;SDS_P1;SDS_P2;PMS_P1;PMS_P2;Temp;Humidity;BMP_temperature;BMP_pressure;BME280_temperature;BME280_humidity;BME280_pressure;Samples;Min_cycle;Max_cycle;Signal;HPM_P1;HPM_P2
2022/09/10 00:01:13;;;;;;;4.38;2.97;;;18.10;83.60;;;;;;5073277;28;20477;-70
2022/09/10 00:03:42;;;;;;;7.60;3.45;;;18.10;83.50;;;;;;5082626;28;20089;-70
2022/09/10 00:06:09;;;;;;;4.93;2.30;;;18.00;83.40;;;;;;5087714;28;20111;-71
2022/09/10 00:08:38;;;;;;;3.72;1.92;;;18.00;83.20;;;;;;5084375;28;20460;-70
2022/09/10 00:11:10;;;;;;;6.75;2.22;;;18.00;83.10;;;;;;5082705;28;20017;-71
2022/09/10 00:13:38;;;;;;;5.45;2.22;;;17.90;83.20;;;;;;5083944;28;20101;-71
2022/09/10 00:16:08;;;;;;;5.63;1.85;;;17.90;83.30;;;;;;5086952;28;20857;-71
2022/09/10 00:18:36;;;;;;;3.08;2.10;;;17.90;83.20;;;;;;5082308;28;20046;-70
2022/09/10 00:21:07;;;;;;;5.25;2.38;;;18.00;83.20;;;;;;5081019;28;20090;-69
2022/09/10 00:23:34;;;;;;;3.80;1.95;;;17.90;83.10;;;;;;5082625;28;20020;-71
2022/09/10 00:26:10;;;;;;;3.58;1.48;;;17.90;82.90;;;;;;5082066;28;20020;-70
2022/09/10 00:28:36;;;;;;;5.78;2.05;;;17.90;83.00;;;;;;5085801;28;20051;-70
2022/09/10 00:31:03;;;;;;;1.98;1.40;;;17.80;83.20;;;;;;5083846;28;20059;-70
2022/09/10 00:33:30;;;;;;;3.90;1.33;;;17.80;83.20;;;;;;5080041;28;20043;-69
2022/09/10 00:35:59;;;;;;;6.15;2.42;;;17.90;83.30;;;;;;5088461;28;20066;-71
2022/09/10 00:38:30;;;;;;;10.25;2.08;;;17.90;83.30;;;;;;5088009;28;20024;-68
2022/09/10 00:41:07;;;;;;;5.05;1.70;;;17.90;83.60;;;;;;5080791;28;20067;-68
2022/09/10 00:43:49;;;;;;;11.30;3.17;;;17.90;84.00;;;;;;5076451;28;20127;-71
2022/09/10 00:46:35;;;;;;;2.13;1.75;;;17.90;84.10;;;;;;5082944;28;20058;-68
2022/09/10 00:49:11;;;;;;;8.38;2.40;;;17.80;84.00;;;;;;5085369;28;20020;-70
2022/09/10 00:51:39;;;;;;;4.72;2.38;;;17.80;84.00;;;;;;5077522;28;20499;-70
2022/09/10 00:54:06;;;;;;;5.30;2.47;;;17.90;84.10;;;;;;5081095;28;20016;-68
2022/09/10 00:56:33;;;;;;;9.80;3.30;;;17.80;84.00;;;;;;5081692;28;20034;-69
2022/09/10 00:59:01;;;;;;;5.32;1.80;;;17.80;83.80;;;;;;5082822;28;20034;-69
2022/09/10 01:01:29;;;;;;;6.15;2.00;;;17.70;83.70;;;;;;5080971;28;20016;-69
2022/09/10 01:03:56;;;;;;;5.07;2.83;;;17.80;83.70;;;;;;5077949;28;20016;-70
2022/09/10 01:06:22;;;;;;;7.75;2.38;;;17.80;83.80;;;;;;5083667;28;20513;-69
2022/09/10 01:08:49;;;;;;;8.35;2.88;;;17.70;84.00;;;;;;5079790;28;20496;-69
2022/09/10 01:11:38;;;;;;;5.22;2.33;;;17.70;83.90;;;;;;5082826;28;20382;-69
2022/09/10 01:14:30;;;;;;;9.32;2.30;;;17.70;83.80;;;;;;5086941;28;20550;-69
2022/09/10 01:17:06;;;;;;;5.63;1.77;;;17.70;84.00;;;;;;5083396;28;20012;-70
2022/09/10 01:20:06;;;;;;;9.15;2.55;;;17.70;84.00;;;;;;5083007;28;20119;-70
2022/09/10 01:23:16;;;;;;;4.80;2.15;;;17.70;84.00;;;;;;5076489;28;20766;-69
2022/09/10 01:26:21;;;;;;;5.03;1.88;;;17.70;84.00;;;;;;5080230;28;20135;-71
2022/09/10 01:29:00;;;;;;;7.90;2.63;;;17.70;84.00;;;;;;5080969;28;20367;-69
2022/09/10 01:31:44;;;;;;;10.43;2.90;;;17.70;83.90;;;;;;5082334;28;20047;-70
2022/09/10 01:34:20;;;;;;;10.88;2.72;;;17.60;83.90;;;;;;5083821;28;20445;-69
2022/09/10 01:36:50;;;;;;;7.93;2.95;;;17.60;83.90;;;;;;5078506;28;20031;-69
2022/09/10 01:39:20;;;;;;;6.47;2.35;;;17.60;84.00;;;;;;5078177;28;20127;-68
2022/09/10 01:41:47;;;;;;;6.00;2.30;;;17.60;84.00;;;;;;5084572;28;20017;-69
2022/09/10 01:44:46;;;;;;;5.57;2.25;;;17.60;83.90;;;;;;5079853;28;20196;-69
2022/09/10 01:47:51;;;;;;;6.00;2.38;;;17.60;83.90;;;;;;5074746;28;20012;-68
2022/09/10 01:50:22;;;;;;;4.85;1.90;;;17.60;83.80;;;;;;5079897;28;20082;-68
2022/09/10 01:53:29;;;;;;;10.10;2.38;;;17.60;84.10;;;;;;5080278;28;20028;-70
2022/09/10 01:56:15;;;;;;;19.30;7.63;;;17.60;84.40;;;;;;5075099;28;20021;-68
2022/09/10 01:58:43;;;;;;;30.52;19.80;;;17.60;84.70;;;;;;5082088;28;20020;-70
2022/09/10 02:01:23;;;;;;;18.55;12.05;;;17.60;84.90;;;;;;5080433;28;20024;-68
2022/09/10 02:03:58;;;;;;;24.25;8.27;;;17.60;85.00;;;;;;5081358;28;20028;-68
2022/09/10 02:06:28;;;;;;;15.68;5.97;;;17.60;85.10;;;;;;5079973;28;20024;-71
2022/09/10 02:08:57;;;;;;;6.07;3.67;;;17.60;84.80;;;;;;5085640;28;20031;-70
2022/09/10 02:11:23;;;;;;;12.45;3.42;;;17.50;84.40;;;;;;5086151;28;20020;-68
2022/09/10 02:13:51;;;;;;;12.32;3.33;;;17.50;84.10;;;;;;5082151;28;20063;-69
2022/09/10 02:16:29;;;;;;;10.05;3.97;;;17.50;83.80;;;;;;5083409;28;20017;-68
2022/09/10 02:18:58;;;;;;;16.45;3.38;;;17.50;83.40;;;;;;5086201;28;20032;-69
2022/09/10 02:21:25;;;;;;;7.53;3.00;;;17.40;83.20;;;;;;5082491;28;20013;-68
2022/09/10 02:23:56;;;;;;;5.80;3.17;;;17.40;83.10;;;;;;5083143;28;20039;-68
2022/09/10 02:26:24;;;;;;;10.35;3.28;;;17.40;82.90;;;;;;5082311;28;20035;-68
2022/09/10 02:28:51;;;;;;;9.85;4.82;;;17.40;82.80;;;;;;5083387;28;20056;-68
2022/09/10 02:31:18;;;;;;;8.73;3.58;;;17.40;82.70;;;;;;5081515;28;20040;-68
2022/09/10 02:33:44;;;;;;;9.00;2.95;;;17.40;82.50;;;;;;5081212;28;20030;-68
2022/09/10 02:36:11;;;;;;;15.68;4.18;;;17.30;82.40;;;;;;5081263;28;20210;-69
2022/09/10 02:38:37;;;;;;;11.35;3.47;;;17.30;82.40;;;;;;5084227;28;20024;-69
2022/09/10 02:41:04;;;;;;;10.85;3.78;;;17.30;82.80;;;;;;5083220;28;20030;-68
2022/09/10 02:43:30;;;;;;;19.55;4.03;;;17.30;83.20;;;;;;5082811;28;20031;-70
2022/09/10 02:45:57;;;;;;;15.50;3.17;;;17.30;83.20;;;;;;5084493;28;20021;-69
2022/09/10 02:48:25;;;;;;;11.32;4.20;;;17.30;83.10;;;;;;5085946;28;20120;-68
2022/09/10 02:50:52;;;;;;;12.40;4.00;;;17.30;83.10;;;;;;5084350;28;20016;-68
2022/09/10 02:53:19;;;;;;;5.35;3.95;;;17.20;83.10;;;;;;5083214;28;20457;-69
2022/09/10 02:55:47;;;;;;;11.48;5.18;;;17.20;83.00;;;;;;5067017;28;20457;-68
2022/09/10 02:58:15;;;;;;;9.43;4.25;;;17.20;82.90;;;;;;5083717;28;20020;-68
2022/09/10 03:00:41;;;;;;;12.30;3.95;;;17.20;82.90;;;;;;5082736;28;20076;-69
2022/09/10 03:03:08;;;;;;;9.88;3.75;;;17.20;82.90;;;;;;5080478;28;20522;-69
2022/09/10 03:05:37;;;;;;;8.60;3.78;;;17.20;82.90;;;;;;5086681;28;20029;-68
2022/09/10 03:08:05;;;;;;;10.13;4.90;;;17.20;82.80;;;;;;5087270;28;20551;-69
2022/09/10 03:10:32;;;;;;;9.32;3.03;;;17.10;82.70;;;;;;5084619;28;20012;-68
2022/09/10 03:12:59;;;;;;;9.02;3.60;;;17.10;82.60;;;;;;5090289;28;20483;-69
2022/09/10 03:15:26;;;;;;;6.97;3.60;;;17.10;82.40;;;;;;5088892;28;20024;-68
2022/09/10 03:17:53;;;;;;;5.65;3.60;;;17.10;82.20;;;;;;5088292;28;20020;-68
2022/09/10 03:20:21;;;;;;;9.50;3.88;;;17.10;81.90;;;;;;5087292;28;20032;-68
2022/09/10 03:22:50;;;;;;;6.82;3.63;;;17.00;81.80;;;;;;5089493;28;20019;-69
2022/09/10 03:25:21;;;;;;;13.90;4.03;;;17.00;81.80;;;;;;5084690;28;20046;-69
2022/09/10 03:27:47;;;;;;;9.82;4.13;;;17.00;81.80;;;;;;5086172;28;20124;-69
2022/09/10 03:30:14;;;;;;;16.38;4.10;;;17.00;81.90;;;;;;5090988;28;20031;-69
2022/09/10 03:32:41;;;;;;;24.58;14.43;;;17.00;82.10;;;;;;5080833;28;20453;-68
2022/09/10 03:35:09;;;;;;;45.50;30.58;;;17.00;82.60;;;;;;5079781;28;20013;-68
2022/09/10 03:37:35;;;;;;;31.15;22.55;;;17.00;82.60;;;;;;5084101;28;20055;-69
2022/09/10 03:40:02;;;;;;;24.98;13.48;;;16.90;82.40;;;;;;5087275;28;20020;-69
2022/09/10 03:42:28;;;;;;;20.40;8.73;;;16.90;82.30;;;;;;5089700;28;20531;-69
2022/09/10 03:44:55;;;;;;;19.08;6.63;;;16.90;82.30;;;;;;5086820;28;20504;-69
2022/09/10 03:47:22;;;;;;;8.82;5.35;;;16.90;82.60;;;;;;5088634;28;20024;-68
2022/09/10 03:49:49;;;;;;;10.07;5.15;;;16.90;82.70;;;;;;5084799;28;20025;-68
2022/09/10 03:52:17;;;;;;;10.50;4.53;;;16.90;82.80;;;;;;5084584;28;20024;-70
2022/09/10 03:54:44;;;;;;;11.68;4.15;;;16.90;82.80;;;;;;5087031;28;20024;-70
2022/09/10 03:57:10;;;;;;;8.07;4.13;;;16.90;82.80;;;;;;5086169;28;20024;-68
2022/09/10 03:59:40;;;;;;;8.85;4.00;;;16.90;83.40;;;;;;5084422;28;20056;-69
2022/09/10 04:02:08;;;;;;;10.73;4.13;;;16.90;82.80;;;;;;5081581;28;20051;-70
2022/09/10 04:04:36;;;;;;;9.75;3.60;;;16.90;82.90;;;;;;5087837;28;20405;-69
2022/09/10 04:07:03;;;;;;;15.07;5.32;;;16.90;83.00;;;;;;5084804;28;20027;-69
2022/09/10 04:09:31;;;;;;;27.02;19.30;;;16.90;83.10;;;;;;5087866;28;20401;-68
2022/09/10 04:11:58;;;;;;;34.42;19.25;;;16.90;83.30;;;;;;5082797;28;20493;-68
2022/09/10 04:14:25;;;;;;;27.70;14.85;;;16.90;83.60;;;;;;5083991;28;20150;-67
2022/09/10 04:16:52;;;;;;;19.98;7.07;;;16.90;83.70;;;;;;5084524;28;20031;-68
2022/09/10 04:19:18;;;;;;;19.20;5.10;;;16.90;84.00;;;;;;5082527;28;20482;-67
2022/09/10 04:21:45;;;;;;;11.73;5.00;;;16.90;83.90;;;;;;5083145;28;20029;-67
2022/09/10 04:24:12;;;;;;;20.05;8.20;;;16.90;84.80;;;;;;5087472;28;20012;-67
2022/09/10 04:26:38;;;;;;;20.25;11.45;;;16.90;85.20;;;;;;5088004;28;20013;-68
2022/09/10 04:29:05;;;;;;;37.90;23.88;;;16.90;85.30;;;;;;5082833;28;20024;-68
2022/09/10 04:31:31;;;;;;;31.63;21.35;;;16.90;85.30;;;;;;5084692;28;20044;-69
2022/09/10 04:34:00;;;;;;;22.27;14.18;;;16.90;85.30;;;;;;5076221;28;20059;-68
2022/09/10 04:36:28;;;;;;;20.58;11.27;;;16.90;85.40;;;;;;5079848;28;20024;-68
2022/09/10 04:38:54;;;;;;;13.75;7.63;;;16.90;85.30;;;;;;5075321;28;20127;-69
2022/09/10 04:41:21;;;;;;;13.18;5.28;;;16.80;85.10;;;;;;5057556;28;20425;-69
2022/09/10 04:43:47;;;;;;;18.17;7.13;;;16.80;85.10;;;;;;5074177;28;20071;-68
2022/09/10 04:46:14;;;;;;;12.18;4.45;;;16.80;85.40;;;;;;5079648;28;20020;-68
2022/09/10 04:48:40;;;;;;;17.45;6.05;;;16.80;85.50;;;;;;5076617;28;20466;-69
2022/09/10 04:51:07;;;;;;;15.50;5.63;;;16.80;85.80;;;;;;5078501;28;20013;-69
2022/09/10 04:53:33;;;;;;;17.02;7.82;;;16.80;86.00;;;;;;5075553;28;20098;-68
2022/09/10 04:56:00;;;;;;;15.75;6.07;;;16.90;86.20;;;;;;5082395;28;20069;-67
2022/09/10 04:58:27;;;;;;;11.05;6.43;;;16.80;86.20;;;;;;5080901;28;20387;-69
2022/09/10 05:00:55;;;;;;;9.85;4.70;;;16.90;86.30;;;;;;5078956;28;20111;-70
2022/09/10 05:03:23;;;;;;;42.85;26.55;;;16.80;86.30;;;;;;5061215;28;20028;-70
2022/09/10 05:05:49;;;;;;;35.13;21.83;;;16.80;86.30;;;;;;5074466;28;20456;-70
2022/09/10 05:08:16;;;;;;;30.23;14.35;;;16.90;86.50;;;;;;5079468;28;20020;-70
2022/09/10 05:10:44;;;;;;;14.88;7.90;;;16.80;86.60;;;;;;5071877;28;20617;-70
2022/09/10 05:13:11;;;;;;;10.85;5.15;;;16.90;86.80;;;;;;5076228;28;20352;-70
2022/09/10 05:15:40;;;;;;;8.95;5.38;;;16.90;86.80;;;;;;5076978;28;20035;-70
2022/09/10 05:18:07;;;;;;;13.02;5.45;;;16.90;86.80;;;;;;5080213;28;20020;-69
2022/09/10 05:20:34;;;;;;;11.50;4.95;;;16.90;86.80;;;;;;5081770;28;20426;-69
2022/09/10 05:23:01;;;;;;;12.20;5.03;;;16.80;86.80;;;;;;5086217;28;20613;-69
2022/09/10 05:25:27;;;;;;;6.78;4.00;;;16.80;86.80;;;;;;5081828;28;20467;-70
2022/09/10 05:27:54;;;;;;;9.95;3.88;;;16.90;86.70;;;;;;5078980;28;20021;-70
2022/09/10 05:30:20;;;;;;;11.60;4.70;;;16.80;86.60;;;;;;5084403;28;20077;-69
2022/09/10 05:32:47;;;;;;;10.48;3.95;;;16.80;86.70;;;;;;5086214;28;20017;-69
2022/09/10 05:35:13;;;;;;;8.68;4.40;;;16.90;86.80;;;;;;5084610;28;20121;-70
2022/09/10 05:37:40;;;;;;;7.00;4.25;;;16.80;86.90;;;;;;5078611;28;20544;-70
2022/09/10 05:40:08;;;;;;;8.25;4.10;;;16.90;87.00;;;;;;5079379;28;20446;-70
2022/09/10 05:42:35;;;;;;;10.93;4.10;;;16.90;87.10;;;;;;5084879;28;20043;-70
2022/09/10 05:45:01;;;;;;;7.20;4.57;;;16.90;87.20;;;;;;5083058;28;20024;-70
2022/09/10 05:47:28;;;;;;;7.75;3.75;;;16.90;87.30;;;;;;5084008;28;20058;-69
2022/09/10 05:49:55;;;;;;;15.25;5.80;;;16.90;87.40;;;;;;5079028;28;20478;-69
2022/09/10 05:52:23;;;;;;;18.88;5.35;;;16.90;87.50;;;;;;5080058;28;20025;-70
2022/09/10 05:54:49;;;;;;;9.57;4.78;;;16.90;87.70;;;;;;5084314;28;20103;-69
2022/09/10 05:57:16;;;;;;;9.18;4.95;;;16.90;87.80;;;;;;5067283;28;20047;-68
2022/09/10 05:59:43;;;;;;;11.98;8.68;;;17.00;87.70;;;;;;5081373;28;20098;-68
2022/09/10 06:02:16;;;;;;;16.65;8.57;;;17.00;87.80;;;;;;5073956;28;20016;-70
2022/09/10 06:04:43;;;;;;;24.92;13.18;;;17.00;87.80;;;;;;5085197;28;20036;-69
2022/09/10 06:07:09;;;;;;;17.85;10.98;;;17.00;87.80;;;;;;5079338;28;20027;-69
2022/09/10 06:09:36;;;;;;;27.27;15.43;;;17.00;87.90;;;;;;5077637;28;20031;-69
2022/09/10 06:12:05;;;;;;;31.73;20.10;;;17.00;88.00;;;;;;5077744;28;20037;-70
2022/09/10 06:14:32;;;;;;;24.45;14.52;;;17.10;88.00;;;;;;5087539;28;20020;-70
2022/09/10 06:16:58;;;;;;;18.17;10.05;;;17.00;88.10;;;;;;5080128;28;20540;-70
2022/09/10 06:19:25;;;;;;;16.33;9.05;;;17.10;88.20;;;;;;5086126;28;20367;-70
2022/09/10 06:21:52;;;;;;;14.02;10.13;;;17.00;88.20;;;;;;5081271;28;20020;-71
2022/09/10 06:24:23;;;;;;;13.68;8.27;;;17.10;88.30;;;;;;5082647;28;20043;-71
2022/09/10 06:26:49;;;;;;;15.70;6.82;;;17.10;88.30;;;;;;5084164;28;20082;-70
2022/09/10 06:29:19;;;;;;;9.98;6.38;;;17.10;88.40;;;;;;5084868;28;20036;-70
2022/09/10 06:31:47;;;;;;;12.73;7.43;;;17.10;88.40;;;;;;5082182;28;20052;-70
2022/09/10 06:34:16;;;;;;;13.10;7.07;;;17.10;88.40;;;;;;5085766;28;20075;-70
2022/09/10 06:36:44;;;;;;;11.93;5.93;;;17.10;88.40;;;;;;5077409;28;20062;-70
2022/09/10 06:39:10;;;;;;;15.93;6.63;;;17.10;88.50;;;;;;5083014;28;20028;-70
2022/09/10 06:41:37;;;;;;;13.93;8.23;;;17.20;88.50;;;;;;5083374;28;20058;-70
2022/09/10 06:44:03;;;;;;;8.93;6.35;;;17.10;88.50;;;;;;5085051;28;20425;-70
2022/09/10 06:46:30;;;;;;;12.38;7.93;;;17.10;88.50;;;;;;5087765;28;20026;-70
2022/09/10 06:49:01;;;;;;;14.70;7.70;;;17.20;88.60;;;;;;5086973;28;20061;-70
2022/09/10 06:51:34;;;;;;;13.45;9.57;;;17.20;88.60;;;;;;5076861;28;20032;-70
2022/09/10 06:54:01;;;;;;;13.15;9.10;;;17.20;88.60;;;;;;5086028;28;20020;-70
2022/09/10 06:56:28;;;;;;;14.52;10.15;;;17.20;88.60;;;;;;5090725;28;20020;-71
2022/09/10 06:58:56;;;;;;;20.08;10.55;;;17.20;88.70;;;;;;5084510;28;20036;-70
2022/09/10 07:01:23;;;;;;;14.85;9.70;;;17.20;88.60;;;;;;5085095;28;20020;-71
2022/09/10 07:03:58;;;;;;;13.57;9.35;;;17.20;88.60;;;;;;5084133;28;20111;-70
2022/09/10 07:06:26;;;;;;;13.70;9.53;;;17.30;88.50;;;;;;5089812;28;20459;-71
2022/09/10 07:08:55;;;;;;;13.63;9.60;;;17.30;88.50;;;;;;5086104;28;20039;-70
2022/09/10 07:11:23;;;;;;;14.43;9.60;;;17.30;88.40;;;;;;5084291;28;20092;-71
2022/09/10 07:13:52;;;;;;;15.48;8.02;;;17.30;88.30;;;;;;5084489;28;20020;-71
2022/09/10 07:16:20;;;;;;;21.30;9.02;;;17.30;88.20;;;;;;5079783;28;20035;-71
2022/09/10 07:18:53;;;;;;;25.23;8.15;;;17.30;88.10;;;;;;5086937;28;20431;-71
2022/09/10 07:21:21;;;;;;;16.98;8.38;;;17.40;88.20;;;;;;5087160;28;20054;-70
2022/09/10 07:23:50;;;;;;;13.57;7.82;;;17.40;88.20;;;;;;5082015;28;20375;-70
2022/09/10 07:26:21;;;;;;;18.13;8.10;;;17.40;88.30;;;;;;5080656;28;20390;-71
2022/09/10 07:28:47;;;;;;;14.50;9.52;;;17.40;88.30;;;;;;5083307;28;20024;-71
2022/09/10 07:31:20;;;;;;;12.05;8.07;;;17.50;88.20;;;;;;5071919;28;20411;-71
2022/09/10 07:33:47;;;;;;;16.83;10.25;;;17.50;88.20;;;;;;5084081;28;20032;-71
2022/09/10 07:36:14;;;;;;;16.58;10.13;;;17.60;88.20;;;;;;5076919;28;20024;-71
2022/09/10 07:38:41;;;;;;;11.45;7.63;;;17.60;88.20;;;;;;5084094;28;20103;-71
2022/09/10 07:41:10;;;;;;;13.02;8.18;;;17.60;88.10;;;;;;5085198;28;20478;-71
2022/09/10 07:43:38;;;;;;;12.82;7.80;;;17.60;88.00;;;;;;5085950;28;20107;-71
2022/09/10 07:46:06;;;;;;;11.70;7.10;;;17.60;87.90;;;;;;5080232;28;20032;-70
2022/09/10 07:48:33;;;;;;;16.45;7.32;;;17.60;87.70;;;;;;5084811;28;20031;-71
2022/09/10 07:51:07;;;;;;;16.00;7.30;;;17.60;87.70;;;;;;5081709;28;20009;-71
2022/09/10 07:53:34;;;;;;;13.40;7.00;;;17.60;87.70;;;;;;5085920;28;20510;-71
2022/09/10 07:56:03;;;;;;;13.00;6.13;;;17.60;87.70;;;;;;5084239;28;20024;-70
2022/09/10 07:58:31;;;;;;;11.05;6.63;;;17.70;87.70;;;;;;5082529;28;20017;-70
2022/09/10 08:00:59;;;;;;;13.65;5.75;;;17.70;87.70;;;;;;5082488;28;20374;-71
2022/09/10 08:03:26;;;;;;;10.15;5.07;;;17.70;87.60;;;;;;5082987;28;20329;-71
2022/09/10 08:05:53;;;;;;;16.40;5.32;;;17.70;87.60;;;;;;5084903;28;20564;-71
2022/09/10 08:08:20;;;;;;;9.52;4.97;;;17.70;87.60;;;;;;5079388;28;20099;-71
2022/09/10 08:10:48;;;;;;;8.77;4.80;;;17.80;87.70;;;;;;5085123;28;20386;-71
2022/09/10 08:13:15;;;;;;;9.77;5.15;;;17.80;87.60;;;;;;5075293;28;20044;-71
2022/09/10 08:15:43;;;;;;;13.52;5.72;;;17.80;87.70;;;;;;5088410;28;20017;-72
2022/09/10 08:18:12;;;;;;;9.68;4.60;;;17.80;87.70;;;;;;5084707;28;20031;-71
2022/09/10 08:20:39;;;;;;;8.77;5.05;;;17.90;87.70;;;;;;5082497;28;20028;-71
2022/09/10 08:23:07;;;;;;;9.75;5.13;;;17.90;87.90;;;;;;5086398;28;20027;-71
2022/09/10 08:25:34;;;;;;;17.15;6.35;;;17.90;87.80;;;;;;5081216;28;20012;-71
2022/09/10 08:28:01;;;;;;;8.65;5.07;;;17.90;87.90;;;;;;5084020;28;20020;-71
2022/09/10 08:30:27;;;;;;;11.52;5.18;;;17.90;88.00;;;;;;5086776;28;20503;-71
2022/09/10 08:32:55;;;;;;;10.48;6.05;;;17.90;88.00;;;;;;5081538;28;20090;-71
2022/09/10 08:35:21;;;;;;;12.57;6.25;;;18.00;88.10;;;;;;5084276;28;20021;-71
2022/09/10 08:37:48;;;;;;;10.38;6.32;;;18.00;88.00;;;;;;5083206;28;20031;-71
2022/09/10 08:40:15;;;;;;;10.70;6.53;;;18.00;88.00;;;;;;5084405;28;20115;-71
2022/09/10 08:42:47;;;;;;;13.60;6.43;;;18.00;88.00;;;;;;5079703;28;20017;-70
2022/09/10 08:45:26;;;;;;;14.43;7.30;;;18.00;87.90;;;;;;5084080;28;20467;-71
2022/09/10 08:48:12;;;;;;;16.27;8.20;;;18.10;88.50;;;;;;5083739;28;20450;-71
2022/09/10 08:50:48;;;;;;;11.25;8.85;;;18.10;87.80;;;;;;5078825;28;20031;-71
2022/09/10 08:53:33;;;;;;;12.77;7.65;;;18.10;87.90;;;;;;5082566;28;20076;-71
2022/09/10 08:56:08;;;;;;;16.00;8.75;;;18.10;87.60;;;;;;5087432;28;20004;-71
2022/09/10 08:59:29;;;;;;;15.23;7.70;;;18.10;87.50;;;;;;5083677;28;20031;-71
2022/09/10 09:02:39;;;;;;;12.85;7.50;;;18.10;87.30;;;;;;5048871;28;20115;-71
2022/09/10 09:05:14;;;;;;;9.52;6.00;;;18.10;87.10;;;;;;5025221;28;20021;-71
2022/09/10 09:07:41;;;;;;;7.57;4.70;;;18.10;86.90;;;;;;5078202;28;20020;-71
2022/09/10 09:10:30;;;;;;;8.75;5.88;;;18.10;86.70;;;;;;5075631;28;20027;-71
2022/09/10 09:13:27;;;;;;;12.35;5.97;;;18.10;86.50;;;;;;5077999;28;20024;-71
2022/09/10 09:16:22;;;;;;;9.70;6.22;;;18.10;86.30;;;;;;5088818;28;20038;-72
2022/09/10 09:19:06;;;;;;;12.73;6.28;;;18.10;86.20;;;;;;5081526;28;20024;-71
2022/09/10 09:21:52;;;;;;;11.30;4.97;;;18.10;86.10;;;;;;5086665;28;20476;-71
2022/09/10 09:25:01;;;;;;;10.23;6.40;;;18.10;86.00;;;;;;5085008;28;20029;-71
2022/09/10 09:27:35;;;;;;;19.42;7.40;;;18.10;86.00;;;;;;5084407;28;20024;-71
2022/09/10 09:30:03;;;;;;;14.27;7.30;;;18.10;86.00;;;;;;5082114;28;20436;-71
2022/09/10 09:32:41;;;;;;;12.55;6.28;;;18.20;86.20;;;;;;5086041;28;20047;-70
2022/09/10 09:35:33;;;;;;;15.68;7.07;;;18.20;86.30;;;;;;5080415;28;20016;-70
2022/09/10 09:38:02;;;;;;;11.68;6.22;;;18.20;86.20;;;;;;5074883;28;20052;-70
2022/09/10 09:40:32;;;;;;;10.68;6.55;;;18.20;86.10;;;;;;5080546;28;20136;-70
2022/09/10 09:43:10;;;;;;;12.55;5.50;;;18.20;86.00;;;;;;5079804;28;20020;-70
2022/09/10 09:45:46;;;;;;;7.60;4.18;;;18.20;85.90;;;;;;5085890;28;20020;-70
2022/09/10 09:48:16;;;;;;;9.27;4.65;;;18.20;85.80;;;;;;5077435;28;20028;-70
2022/09/10 09:50:54;;;;;;;17.90;4.03;;;18.20;85.60;;;;;;5079904;28;20024;-70
2022/09/10 09:53:26;;;;;;;14.95;4.28;;;18.20;85.60;;;;;;5075921;28;20028;-70
2022/09/10 09:55:56;;;;;;;8.00;3.47;;;18.20;85.70;;;;;;5089144;28;20058;-70
2022/09/10 09:58:25;;;;;;;17.02;3.80;;;18.20;85.70;;;;;;5077902;28;20024;-70
2022/09/10 10:01:04;;;;;;;9.27;3.42;;;18.30;85.80;;;;;;5082959;28;20711;-70
2022/09/10 10:03:32;;;;;;;13.52;3.78;;;18.30;85.80;;;;;;5077134;28;20032;-70
2022/09/10 10:06:04;;;;;;;9.27;3.85;;;18.30;85.80;;;;;;5079776;28;20016;-71
2022/09/10 10:08:43;;;;;;;13.95;4.28;;;18.30;85.70;;;;;;5083824;28;20062;-70
2022/09/10 10:11:13;;;;;;;12.25;4.22;;;18.30;85.70;;;;;;5074223;28;20044;-70
2022/09/10 10:13:43;;;;;;;10.07;3.05;;;18.30;85.60;;;;;;5072987;28;20027;-70
2022/09/10 10:16:36;;;;;;;9.32;3.60;;;18.30;85.60;;;;;;5085390;28;20009;-71
2022/09/10 10:19:26;;;;;;;5.68;3.00;;;18.30;85.50;;;;;;5081175;28;20040;-71
2022/09/10 10:21:53;;;;;;;10.77;4.22;;;18.40;85.60;;;;;;5077247;28;20093;-71
2022/09/10 10:24:31;;;;;;;8.88;3.72;;;18.40;85.60;;;;;;5082459;28;20059;-71
2022/09/10 10:26:58;;;;;;;8.18;3.83;;;18.40;85.70;;;;;;5080740;28;20031;-70
2022/09/10 10:29:26;;;;;;;9.55;3.10;;;18.40;85.70;;;;;;5080425;28;20016;-71
2022/09/10 10:31:55;;;;;;;9.63;3.95;;;18.40;85.70;;;;;;5075974;28;20056;-70
2022/09/10 10:34:53;;;;;;;6.85;2.63;;;18.40;85.50;;;;;;5081292;28;20048;-71
2022/09/10 10:37:32;;;;;;;11.43;3.50;;;18.50;85.40;;;;;;5053605;28;20044;-70
2022/09/10 10:40:11;;;;;;;11.05;3.95;;;18.50;85.30;;;;;;5086365;28;20024;-71
2022/09/10 10:42:37;;;;;;;7.78;3.50;;;18.50;85.20;;;;;;5078209;28;20024;-71
2022/09/10 10:45:17;;;;;;;6.80;3.45;;;18.50;85.20;;;;;;5074830;28;20046;-70
2022/09/10 10:48:16;;;;;;;10.82;4.00;;;18.50;85.10;;;;;;5083796;28;20024;-71
2022/09/10 10:51:10;;;;;;;10.45;3.22;;;18.50;85.20;;;;;;5085099;28;20028;-70
2022/09/10 10:53:37;;;;;;;18.00;5.00;;;18.50;85.50;;;;;;5077760;28;20028;-71
2022/09/10 10:56:11;;;;;;;10.25;3.05;;;18.60;85.70;;;;;;5084069;28;20012;-71
2022/09/10 10:59:10;;;;;;;6.07;2.67;;;18.70;85.70;;;;;;5075125;28;20033;-71
2022/09/10 11:01:43;;;;;;;8.88;3.15;;;18.60;85.40;;;;;;5083183;28;20032;-71
2022/09/10 11:04:37;;;;;;;11.98;2.50;;;18.70;85.40;;;;;;5078376;28;20028;-70
2022/09/10 11:07:29;;;;;;;7.53;3.42;;;18.60;85.30;;;;;;5077308;28;20567;-71
2022/09/10 11:10:10;;;;;;;5.47;1.92;;;18.70;85.80;;;;;;5069160;28;20040;-71
2022/09/10 11:12:48;;;;;;;6.50;1.60;;;18.70;85.70;;;;;;5080797;28;20425;-71
2022/09/10 11:15:34;;;;;;;6.75;1.85;;;18.70;85.40;;;;;;5078245;28;20027;-71
2022/09/10 11:18:13;;;;;;;11.13;3.35;;;18.70;85.20;;;;;;5085928;28;20106;-71
2022/09/10 11:20:55;;;;;;;5.05;1.42;;;18.70;85.00;;;;;;5082748;28;20024;-71
2022/09/10 11:23:37;;;;;;;2.42;1.48;;;18.70;85.00;;;;;;5078832;28;20031;-71
2022/09/10 11:26:15;;;;;;;6.30;1.70;;;18.70;85.10;;;;;;5079658;28;20021;-71
2022/09/10 11:29:09;;;;;;;4.75;0.90;;;18.70;85.10;;;;;;5086756;28;20016;-71
2022/09/10 11:31:41;;;;;;;4.40;0.82;;;18.70;85.20;;;;;;5086507;28;20056;-71
2022/09/10 11:34:34;;;;;;;4.10;1.05;;;18.80;85.30;;;;;;5082918;28;20027;-71
2022/09/10 11:37:22;;;;;;;5.50;0.70;;;18.80;85.40;;;;;;5080752;28;20062;-71
2022/09/10 11:39:51;;;;;;;2.67;0.90;;;18.80;86.10;;;;;;5082501;28;20494;-71
2022/09/10 11:42:43;;;;;;;2.97;0.88;;;18.80;85.50;;;;;;5086869;28;20020;-71
2022/09/10 11:45:56;;;;;;;4.32;0.73;;;18.80;85.50;;;;;;5066554;28;20442;-71
2022/09/10 11:48:39;;;;;;;4.03;0.70;;;18.80;85.50;;;;;;5079777;28;20037;-71
2022/09/10 11:51:10;;;;;;;3.45;0.85;;;18.80;85.60;;;;;;5081101;28;20054;-71
2022/09/10 11:53:37;;;;;;;4.32;1.35;;;18.80;85.60;;;;;;5082189;28;20086;-71
2022/09/10 11:56:40;;;;;;;5.28;1.00;;;18.80;85.60;;;;;;5090945;28;20027;-71
2022/09/10 11:59:07;;;;;;;1.48;0.77;;;18.80;85.50;;;;;;5084179;28;20107;-71
2022/09/10 12:01:48;;;;;;;1.65;0.65;;;18.80;85.40;;;;;;5086120;28;20046;-71
2022/09/10 12:04:39;;;;;;;6.05;1.73;;;18.80;85.30;;;;;;5078706;28;20029;-71
2022/09/10 12:07:24;;;;;;;4.28;0.77;;;18.80;85.10;;;;;;5082786;28;20047;-71
2022/09/10 12:10:12;;;;;;;4.60;1.30;;;18.80;85.10;;;;;;5084963;28;20599;-71
2022/09/10 12:12:44;;;;;;;2.63;1.13;;;18.80;85.10;;;;;;5081292;28;20487;-70
2022/09/10 12:15:23;;;;;;;1.33;0.70;;;18.80;85.10;;;;;;5080688;28;20019;-70
2022/09/10 14:34:30;;;;;;;1.45;1.00;;;17.90;86.80;;;;;;5052986;27;20982;-69
2022/09/10 14:37:01;;;;;;;2.75;1.02;;;18.30;86.70;;;;;;5038277;28;20032;-71
2022/09/10 14:39:27;;;;;;;2.72;1.10;;;18.30;86.90;;;;;;5050780;28;20395;-68
2022/09/10 14:42:28;;;;;;;2.47;0.82;;;18.40;85.80;;;;;;5037037;28;20034;-69
2022/09/10 14:44:55;;;;;;;1.75;1.10;;;18.40;85.20;;;;;;5034283;28;20029;-71
2022/09/10 14:47:33;;;;;;;2.25;1.02;;;18.50;84.80;;;;;;5037637;28;20022;-71
2022/09/10 14:50:29;;;;;;;1.80;0.75;;;18.50;84.30;;;;;;5038889;28;20156;-69
2022/09/10 14:52:57;;;;;;;1.33;0.93;;;18.50;83.80;;;;;;5037902;28;20380;-73
2022/09/10 14:55:25;;;;;;;3.92;1.30;;;18.50;83.50;;;;;;5040161;28;20488;-71
2022/09/10 14:57:56;;;;;;;2.13;0.98;;;18.50;83.20;;;;;;5042499;28;20025;-72
2022/09/10 15:00:24;;;;;;;2.72;1.10;;;18.50;83.00;;;;;;5040176;28;20021;-70
2022/09/10 15:02:54;;;;;;;3.58;1.83;;;18.50;82.80;;;;;;5045147;28;20033;-71
2022/09/10 15:05:21;;;;;;;2.13;1.63;;;18.50;82.70;;;;;;5043103;28;20026;-70
2022/09/10 15:07:47;;;;;;;3.95;2.08;;;18.50;82.70;;;;;;5042991;28;20503;-71
2022/09/10 15:10:15;;;;;;;4.78;2.40;;;18.50;82.70;;;;;;5038863;28;20033;-70
2022/09/10 15:12:48;;;;;;;9.00;2.40;;;18.50;82.70;;;;;;5034154;28;20021;-70
2022/09/10 15:15:16;;;;;;;5.15;2.58;;;18.50;82.80;;;;;;5040117;28;20047;-71
2022/09/10 15:17:43;;;;;;;16.65;9.90;;;18.50;82.80;;;;;;5041970;28;20513;-70
2022/09/10 15:20:15;;;;;;;15.73;11.77;;;18.50;82.90;;;;;;5041999;28;20025;-71
2022/09/10 15:22:42;;;;;;;5.97;3.53;;;18.50;82.90;;;;;;5037744;28;20123;-71
2022/09/10 15:25:45;;;;;;;6.65;3.20;;;18.50;83.00;;;;;;5040580;28;20033;-70